Arctic Bay — 9HTD8 — position and weather

sailwx.info

Track history (hours):
 
Tides and Currents Weather Stations Pressure Air Temp Water Temp Dewpoint Dewpoint Depression Visibility Wind Speed Wind Dir Waves Ship Positions

Arctic Bay

Last reported at 2016-Jul-09 07:04 UTC. Time now 2016-Jul-30 13:07 UTC.
Position N 08°11' W 079°28'.
Warning: this ship's position is 21 days out of date.

Length 182 m; draft 11 m.

Type: Ship. MMSI: 256396000.

Date/timePositionNaut miles runAvg speedWind from/ knotsBaromVisibWave heightAir tempDewpointWater temp
2016-Jul-09 07:04N 08°11' W 079°28'713.9
2016-Jul-09 06:33N 08°18' W 079°28'3014.9
2016-Jul-09 04:33N 08°48' W 079°28'1110.5
2016-Jul-09 03:30N 08°57' W 079°34'3 2.5
2016-Jul-09 02:17N 08°60' W 079°36'1 1.8
2016-Jul-09 01:29N 09°01' W 079°37'0 0.5
2016-Jul-09 00:27N 09°01' W 079°37'1 1.0
2016-Jul-08 23:27N 09°02' W 079°38'5 5.0
2016-Jul-08 22:31N 09°05' W 079°41'6 5.6
2016-Jul-08 21:29N 09°07' W 079°47'7 8.0
2016-Jul-08 20:33N 09°11' W 079°53'4 3.8
2016-Jul-08 19:31N 09°14' W 079°56'0 0.3
2016-Jul-08 18:33N 09°14' W 079°55'3 2.5
2016-Jul-08 17:33N 09°16' W 079°55'0 0.5
2016-Jul-08 16:33N 09°17' W 079°55'2 2.3
2016-Jul-08 15:33N 09°19' W 079°55'4 4.1
2016-Jul-08 14:33N 09°23' W 079°55'2 2.3
2016-Jul-08 13:32N 09°24' W 079°57'0 0.0
2016-Jul-08 12:33N 09°24' W 079°57'0 0.0
2016-Jul-08 11:32N 09°24' W 079°57'0 0.0
2016-Jul-08 10:32N 09°24' W 079°57'0 0.0
2016-Jul-08 09:29N 09°24' W 079°57'0 0.0
2016-Jul-08 07:08N 09°24' W 079°57'0 0.0
2016-Jul-08 06:27N 09°24' W 079°57'0 0.0
2016-Jul-08 04:32N 09°24' W 079°57'0 0.0
2016-Jul-08 03:33N 09°24' W 079°57'0 0.0
2016-Jul-08 02:32N 09°24' W 079°57'0 0.0
2016-Jul-08 01:32N 09°24' W 079°57'4 4.0
2016-Jul-08 00:33N 09°28' W 079°56'10 9.9
2016-Jul-07 23:33N 09°38' W 079°53'9 9.4
2016-Jul-07 22:33N 09°47' W 079°52'  
2016-Jul-03 07:13N 29°07' W 094°25'913.1
2016-Jul-03 06:33N 29°13' W 094°32'14 0.8
2016-Jul-02 13:26N 29°21' W 094°46'1011.0
2016-Jul-02 12:30N 29°30' W 094°52'1010.5
2016-Jul-02 11:33N 29°38' W 094°58'7 7.5
2016-Jul-02 10:33N 29°44' W 095°03'5 0.1
2016-Jun-30 07:03N 29°44' W 095°08'0 0.7
2016-Jun-30 06:33N 29°44' W 095°08'5 4.8
2016-Jun-30 05:33N 29°44' W 095°02'10 9.7
2016-Jun-30 04:33N 29°36' W 094°57'1312.7
2016-Jun-30 03:33N 29°24' W 094°49'  
Track history (hours):
 
Tides and Currents Weather Stations Pressure Air Temp Water Temp Dewpoint Dewpoint Depression Visibility Wind Speed Wind Dir Waves Ship Positions

Arctic Bay

Last reported at 2016-Jul-09 07:04 UTC. Time now 2016-Jul-30 13:07 UTC.
Position N 08°11' W 079°28'.
Warning: this ship's position is 21 days out of date.

Length 182 m; draft 11 m.

Type: Ship. MMSI: 256396000.

Date/timePositionNaut miles runAvg speedWind from/ knotsBaromVisibWave heightAir tempDewpointWater temp
2016-Jul-09 07:04N 08°11' W 079°28'713.9
2016-Jul-09 06:33N 08°18' W 079°28'3014.9
2016-Jul-09 04:33N 08°48' W 079°28'1110.5
2016-Jul-09 03:30N 08°57' W 079°34'3 2.5
2016-Jul-09 02:17N 08°60' W 079°36'1 1.8
2016-Jul-09 01:29N 09°01' W 079°37'0 0.5
2016-Jul-09 00:27N 09°01' W 079°37'1 1.0
2016-Jul-08 23:27N 09°02' W 079°38'5 5.0
2016-Jul-08 22:31N 09°05' W 079°41'6 5.6
2016-Jul-08 21:29N 09°07' W 079°47'7 8.0
2016-Jul-08 20:33N 09°11' W 079°53'4 3.8
2016-Jul-08 19:31N 09°14' W 079°56'0 0.3
2016-Jul-08 18:33N 09°14' W 079°55'3 2.5
2016-Jul-08 17:33N 09°16' W 079°55'0 0.5
2016-Jul-08 16:33N 09°17' W 079°55'2 2.3
2016-Jul-08 15:33N 09°19' W 079°55'4 4.1
2016-Jul-08 14:33N 09°23' W 079°55'2 2.3
2016-Jul-08 13:32N 09°24' W 079°57'0 0.0
2016-Jul-08 12:33N 09°24' W 079°57'0 0.0
2016-Jul-08 11:32N 09°24' W 079°57'0 0.0
2016-Jul-08 10:32N 09°24' W 079°57'0 0.0
2016-Jul-08 09:29N 09°24' W 079°57'0 0.0
2016-Jul-08 07:08N 09°24' W 079°57'0 0.0
2016-Jul-08 06:27N 09°24' W 079°57'0 0.0
2016-Jul-08 04:32N 09°24' W 079°57'0 0.0
2016-Jul-08 03:33N 09°24' W 079°57'0 0.0
2016-Jul-08 02:32N 09°24' W 079°57'0 0.0
2016-Jul-08 01:32N 09°24' W 079°57'4 4.0
2016-Jul-08 00:33N 09°28' W 079°56'10 9.9
2016-Jul-07 23:33N 09°38' W 079°53'9 9.4
2016-Jul-07 22:33N 09°47' W 079°52'  
2016-Jul-03 07:13N 29°07' W 094°25'913.1
2016-Jul-03 06:33N 29°13' W 094°32'14 0.8
2016-Jul-02 13:26N 29°21' W 094°46'1011.0
2016-Jul-02 12:30N 29°30' W 094°52'1010.5
2016-Jul-02 11:33N 29°38' W 094°58'7 7.5
2016-Jul-02 10:33N 29°44' W 095°03'5 0.1
2016-Jun-30 07:03N 29°44' W 095°08'0 0.7
2016-Jun-30 06:33N 29°44' W 095°08'5 4.8
2016-Jun-30 05:33N 29°44' W 095°02'10 9.7
2016-Jun-30 04:33N 29°36' W 094°57'1312.7
2016-Jun-30 03:33N 29°24' W 094°49'  

Dump ship's entire track history